createdAt,value
2019-01-19T00:00:37.218Z,0.70
2019-01-19T00:03:11.323Z,0.60
2019-01-19T00:05:48.633Z,0.67
2019-01-19T00:08:20.177Z,0.80
2019-01-19T00:10:57.489Z,0.70
2019-01-19T00:13:40.983Z,2.30
2019-01-19T00:16:12.496Z,0.80
2019-01-19T00:18:44.022Z,0.80
2019-01-19T00:21:21.472Z,1.13
2019-01-19T00:23:55.629Z,0.60
2019-01-19T00:26:35.578Z,1.40
2019-01-19T00:29:15.725Z,0.60
2019-01-19T00:32:02.109Z,1.57
2019-01-19T00:34:34.060Z,0.60
2019-01-19T00:37:08.953Z,0.70
2019-01-19T00:39:43.173Z,2.67
2019-01-19T00:42:23.597Z,0.53
2019-01-19T00:44:55.120Z,0.67
2019-01-19T00:47:44.473Z,0.87
2019-01-19T00:50:49.373Z,1.07
2019-01-19T00:53:23.553Z,0.60
2019-01-19T00:55:57.806Z,1.20
2019-01-19T00:58:41.241Z,0.50
2019-01-19T01:01:15.273Z,0.60
2019-01-19T01:04:04.993Z,1.00
2019-01-19T01:06:36.514Z,2.10
2019-01-19T01:09:42.466Z,1.57
2019-01-19T01:12:13.981Z,0.50
2019-01-19T01:15:09.623Z,0.60
2019-01-19T01:17:40.278Z,1.33
2019-01-19T01:20:28.333Z,1.13
2019-01-19T01:23:11.385Z,2.23
2019-01-19T01:25:51.759Z,0.60
2019-01-19T01:28:31.561Z,1.37
2019-01-19T01:31:09.321Z,4.53
2019-01-19T01:33:49.735Z,1.80
2019-01-19T01:36:29.885Z,5.70
2019-01-19T01:39:16.394Z,0.60
2019-01-19T01:41:50.645Z,0.80
2019-01-19T01:44:27.894Z,1.03
2019-01-19T01:47:14.623Z,0.60
2019-01-19T01:49:54.525Z,1.10
2019-01-19T01:52:31.971Z,0.60
2019-01-19T01:55:03.501Z,0.80
2019-01-19T01:57:33.485Z,0.60
2019-01-19T02:00:13.818Z,0.60
2019-01-19T02:03:00.772Z,0.70
2019-01-19T02:05:43.569Z,1.17
2019-01-19T02:08:17.783Z,0.53
2019-01-19T02:11:01.297Z,0.67
2019-01-19T02:13:50.260Z,2.83
2019-01-19T02:16:33.557Z,0.60
2019-01-19T02:19:36.785Z,0.60
2019-01-19T02:22:14.312Z,0.63
2019-01-19T02:24:48.589Z,0.70
2019-01-19T02:27:25.989Z,0.77
2019-01-19T02:30:18.635Z,0.60
2019-01-19T02:33:05.017Z,0.77
2019-01-19T02:35:36.558Z,0.50
2019-01-19T02:38:22.973Z,0.50
2019-01-19T02:41:09.649Z,1.00
2019-01-19T02:43:46.475Z,0.83
2019-01-19T02:46:43.669Z,0.60
2019-01-19T02:49:23.773Z,0.80
2019-01-19T02:52:20.482Z,0.60
2019-01-19T02:54:57.793Z,0.70
2019-01-19T02:57:56.597Z,1.03
2019-01-19T03:00:45.949Z,0.63
2019-01-19T03:03:52.454Z,0.80
2019-01-19T03:06:32.748Z,0.90
2019-01-19T03:09:16.057Z,0.90
2019-01-19T03:11:50.562Z,1.00
2019-01-19T03:14:30.719Z,2.00
2019-01-19T03:17:11.189Z,0.67
2019-01-19T03:19:48.630Z,1.47
2019-01-19T03:22:41.262Z,9.33
2019-01-19T03:25:24.914Z,0.70
2019-01-19T03:28:30.201Z,0.70
2019-01-19T03:31:21.307Z,0.60
2019-01-19T03:33:55.772Z,0.80
2019-01-19T03:36:32.820Z,0.90
2019-01-19T03:39:22.445Z,0.70
2019-01-19T03:41:54.264Z,0.73
2019-01-19T03:44:28.425Z,1.17
2019-01-19T03:47:21.058Z,1.20
2019-01-19T03:49:58.205Z,1.67
2019-01-19T03:52:32.332Z,5.63
2019-01-19T03:55:37.621Z,0.80
2019-01-19T03:58:36.433Z,0.70
2019-01-19T04:01:33.818Z,1.60
2019-01-19T04:04:14.331Z,0.70
2019-01-19T04:07:12.550Z,0.80
2019-01-19T04:10:05.145Z,0.70
2019-01-19T04:12:53.436Z,0.80
2019-01-19T04:15:43.069Z,0.97
2019-01-19T04:18:20.219Z,0.93
2019-01-19T04:21:03.679Z,0.70
2019-01-19T04:23:32.558Z,0.80
2019-01-19T04:26:02.641Z,0.87
2019-01-19T04:28:31.165Z,0.87
2019-01-19T04:30:59.622Z,0.93
2019-01-19T04:33:28.091Z,2.10
2019-01-19T04:35:56.617Z,1.03
2019-01-19T04:38:25.075Z,0.97
2019-01-19T04:40:53.532Z,0.90
2019-01-19T04:43:22.135Z,0.93
2019-01-19T04:45:50.589Z,2.40
2019-01-19T04:48:20.675Z,0.70
2019-01-19T04:50:49.134Z,1.00
2019-01-19T04:53:17.575Z,0.90
2019-01-19T04:55:46.085Z,0.87
2019-01-19T04:58:14.614Z,2.53
2019-01-19T05:00:43.091Z,0.90
2019-01-19T05:03:11.538Z,1.10
2019-01-19T05:05:40.062Z,0.80
2019-01-19T05:08:08.506Z,0.83
2019-01-19T05:10:37.033Z,0.70
2019-01-19T05:13:05.475Z,0.97
2019-01-19T05:15:34.018Z,0.97
2019-01-19T05:18:02.721Z,0.70
2019-01-19T05:20:31.194Z,0.70
2019-01-19T05:22:59.632Z,1.17
2019-01-19T05:25:28.077Z,1.10
2019-01-19T05:27:56.537Z,1.83
2019-01-19T05:30:24.996Z,1.80
2019-01-19T05:32:53.444Z,1.20
2019-01-19T05:35:22.044Z,1.63
2019-01-19T05:37:50.500Z,1.30
2019-01-19T05:40:18.944Z,1.60
2019-01-19T05:42:47.381Z,1.40
2019-01-19T05:45:15.983Z,1.30
2019-01-19T05:47:44.509Z,2.73
2019-01-19T05:50:18.130Z,1.77
2019-01-19T05:52:46.661Z,1.90
2019-01-19T05:55:15.174Z,1.70
2019-01-19T05:57:43.635Z,2.03
2019-01-19T06:00:17.313Z,9.83
2019-01-19T06:02:45.757Z,1.70
2019-01-19T06:05:14.362Z,1.40
2019-01-19T06:07:42.801Z,1.67
2019-01-19T06:10:16.177Z,1.07
2019-01-19T06:12:44.625Z,1.17
2019-01-19T06:15:15.327Z,1.67
2019-01-19T06:17:43.842Z,1.50
2019-01-19T06:20:15.014Z,1.20
2019-01-19T06:22:43.523Z,1.50
2019-01-19T06:25:14.034Z,1.50
2019-01-19T06:27:42.556Z,1.67
2019-01-19T06:30:17.126Z,1.20
2019-01-19T06:32:45.715Z,1.40
2019-01-19T06:35:14.241Z,2.97
2019-01-19T06:37:42.698Z,1.50
2019-01-19T06:40:18.451Z,1.40
2019-01-19T06:42:46.974Z,2.30
2019-01-19T06:45:17.768Z,2.20
2019-01-19T06:47:46.293Z,1.73
2019-01-19T06:50:16.589Z,1.97
2019-01-19T06:52:45.107Z,1.53
2019-01-19T06:55:25.547Z,1.50
2019-01-19T06:57:53.995Z,1.80
2019-01-19T07:00:22.633Z,1.73
2019-01-19T07:02:51.142Z,1.87
2019-01-19T07:05:19.649Z,1.20
2019-01-19T07:07:48.106Z,1.67
2019-01-19T07:13:17.160Z,2.43
2019-01-19T07:15:45.617Z,4.30
2019-01-19T07:18:14.065Z,4.57
2019-01-19T07:20:42.686Z,7.17
2019-01-19T07:23:11.150Z,13.73
2019-01-19T07:25:39.670Z,27.97
2019-01-19T07:28:08.194Z,18.10
2019-01-19T07:30:36.714Z,26.60
2019-01-19T07:33:05.500Z,13.23
2019-01-19T07:35:34.453Z,9.57
2019-01-19T07:38:03.389Z,10.70
2019-01-19T07:40:32.254Z,11.67
2019-01-19T07:43:01.976Z,20.77
2019-01-19T07:45:30.925Z,19.47
2019-01-19T07:48:00.215Z,14.17
2019-01-19T07:50:29.213Z,14.73
2019-01-19T07:52:58.167Z,11.27
2019-01-19T07:55:26.965Z,8.50
2019-01-19T07:57:55.878Z,7.23
2019-01-19T08:00:29.963Z,7.20
2019-01-19T08:02:58.908Z,7.87
2019-01-19T08:05:27.779Z,4.93
2019-01-19T08:07:56.863Z,5.90
2019-01-19T08:10:25.748Z,7.47
2019-01-19T08:12:54.589Z,6.80
2019-01-19T08:15:26.406Z,8.03
2019-01-19T08:17:55.446Z,8.67
2019-01-19T08:20:24.399Z,8.30
2019-01-19T08:22:53.314Z,6.47
2019-01-19T08:25:22.301Z,5.43
2019-01-19T08:27:51.254Z,7.43
2019-01-19T08:30:25.044Z,5.20
2019-01-19T08:32:53.645Z,6.93
2019-01-19T08:35:22.545Z,8.87
2019-01-19T08:37:51.005Z,9.60
2019-01-19T08:40:25.166Z,6.80
2019-01-19T08:42:58.320Z,4.87
2019-01-19T08:45:27.146Z,5.33
2019-01-19T08:47:55.646Z,7.47
2019-01-19T08:50:24.096Z,7.67
2019-01-19T08:52:52.554Z,9.37
2019-01-19T08:55:21.146Z,7.10
2019-01-19T08:57:49.665Z,7.27
2019-01-19T09:00:20.433Z,7.80
2019-01-19T09:02:49.097Z,7.17
2019-01-19T09:05:17.613Z,5.40
2019-01-19T09:07:46.067Z,9.33
2019-01-19T09:10:18.253Z,10.50
2019-01-19T09:12:46.758Z,2.90
2019-01-19T09:15:18.294Z,3.43
2019-01-19T09:17:46.737Z,3.10
2019-01-19T09:20:16.725Z,2.03
2019-01-19T09:22:47.133Z,2.80
2019-01-19T09:25:16.186Z,3.67
2019-01-19T09:27:44.785Z,1.80
2019-01-19T09:30:18.998Z,3.80
2019-01-19T09:32:47.717Z,2.60
2019-01-19T09:35:16.700Z,2.60
2019-01-19T09:37:46.839Z,2.20
2019-01-19T09:40:17.542Z,2.33
2019-01-19T09:42:46.129Z,2.00
2019-01-19T09:45:19.354Z,2.83
2019-01-19T09:47:47.868Z,3.40
2019-01-19T09:50:17.753Z,2.53
2019-01-19T09:52:46.329Z,2.93
2019-01-19T09:55:14.920Z,3.90
2019-01-19T09:57:43.517Z,3.47
2019-01-19T10:00:24.006Z,3.63
2019-01-19T10:02:52.457Z,3.70
2019-01-19T10:05:25.913Z,4.43
2019-01-19T10:07:54.506Z,4.33
2019-01-19T10:10:23.025Z,2.60
2019-01-19T10:12:51.545Z,3.37
2019-01-19T10:15:23.074Z,3.60
2019-01-19T10:17:51.580Z,3.13
2019-01-19T10:20:29.158Z,3.57
2019-01-19T10:22:57.593Z,4.17
2019-01-19T10:25:26.190Z,6.73
2019-01-19T10:27:54.765Z,5.53
2019-01-19T10:30:26.031Z,5.33
2019-01-19T10:32:54.542Z,5.67
2019-01-19T10:35:23.000Z,4.83
2019-01-19T10:37:56.149Z,3.10
2019-01-19T10:40:21.754Z,4.33
2019-01-19T10:42:50.210Z,6.37
2019-01-19T10:45:23.999Z,7.80
2019-01-19T10:47:52.525Z,4.40
2019-01-19T10:50:21.101Z,4.13
2019-01-19T10:52:49.652Z,4.40
2019-01-19T10:55:20.147Z,3.90
2019-01-19T10:57:48.736Z,3.90
2019-01-19T11:00:22.918Z,3.43
2019-01-19T11:02:51.441Z,3.33
2019-01-19T11:05:19.905Z,4.90
2019-01-19T11:07:49.179Z,3.70
2019-01-19T11:10:20.561Z,4.00
2019-01-19T11:12:49.084Z,4.17
2019-01-19T11:15:18.764Z,6.00
2019-01-19T11:17:47.542Z,7.13
2019-01-19T11:20:30.005Z,3.20
2019-01-19T11:22:59.781Z,3.37
2019-01-19T11:25:28.774Z,7.50
2019-01-19T11:27:57.278Z,4.33
2019-01-19T11:30:33.750Z,6.90
2019-01-19T11:33:02.253Z,4.93
2019-01-19T11:35:30.930Z,5.53
2019-01-19T11:37:59.481Z,4.10
2019-01-19T11:40:33.685Z,7.37
2019-01-19T11:43:02.194Z,6.73
2019-01-19T11:45:30.769Z,2.90
2019-01-19T11:47:59.405Z,7.63
2019-01-19T11:50:27.918Z,2.40
2019-01-19T11:52:56.522Z,3.60
2019-01-19T11:55:24.957Z,3.70
2019-01-19T11:57:56.129Z,4.10
2019-01-19T12:00:33.282Z,7.87
2019-01-19T12:03:01.786Z,6.03
2019-01-19T12:05:30.338Z,5.60
2019-01-19T12:07:58.891Z,4.23
2019-01-19T12:10:31.531Z,7.80
2019-01-19T12:13:00.039Z,6.23
2019-01-19T12:15:29.093Z,10.50
2019-01-19T12:17:57.990Z,12.80
2019-01-19T12:20:31.790Z,7.13
2019-01-19T12:23:00.373Z,5.70
2019-01-19T12:25:28.818Z,3.87
2019-01-19T12:27:57.322Z,11.73
2019-01-19T12:30:28.109Z,5.47
2019-01-19T12:32:56.687Z,7.70
2019-01-19T12:35:25.201Z,4.80
2019-01-19T12:37:53.973Z,4.10
2019-01-19T12:40:27.717Z,2.97
2019-01-19T12:43:01.009Z,3.00
2019-01-19T12:45:38.605Z,3.07
2019-01-19T12:48:07.121Z,4.80
2019-01-19T12:50:35.626Z,12.10
2019-01-19T12:53:04.218Z,4.80
2019-01-19T12:55:32.821Z,4.60
2019-01-19T12:58:01.277Z,6.77
2019-01-19T13:00:29.877Z,8.60
2019-01-19T13:02:58.326Z,7.57
2019-01-19T13:05:39.002Z,8.20
2019-01-19T13:08:13.874Z,9.60
2019-01-19T13:10:47.999Z,5.63
2019-01-19T13:13:16.573Z,5.03
2019-01-19T13:15:48.097Z,8.23
2019-01-19T13:18:19.607Z,4.17
2019-01-19T13:21:13.157Z,12.37
2019-01-19T13:24:04.266Z,3.37
2019-01-19T13:27:03.381Z,3.67
2019-01-19T13:29:46.951Z,3.07
2019-01-19T13:32:21.138Z,3.00
2019-01-19T13:35:05.637Z,6.80
2019-01-19T13:38:06.090Z,6.33
2019-01-19T13:40:40.409Z,5.83
2019-01-19T13:43:17.493Z,5.17
2019-01-19T13:45:54.678Z,5.33
2019-01-19T13:48:47.173Z,7.17
2019-01-19T13:51:30.678Z,6.93
2019-01-19T13:54:18.830Z,4.87
2019-01-19T13:57:01.854Z,5.83
2019-01-19T13:59:54.289Z,7.90
2019-01-19T14:02:37.682Z,5.97
2019-01-19T14:05:35.161Z,9.07
2019-01-19T14:08:21.869Z,5.53
2019-01-19T14:10:56.353Z,7.00
2019-01-19T14:13:30.889Z,4.90
2019-01-19T14:16:20.410Z,6.67
2019-01-19T14:18:54.865Z,9.23
2019-01-19T14:21:32.122Z,7.40
2019-01-19T14:24:18.914Z,5.43
2019-01-19T14:26:59.353Z,15.47
2019-01-19T14:29:36.430Z,7.63
2019-01-19T14:32:22.819Z,8.00
2019-01-19T14:35:10.858Z,5.83
2019-01-19T14:37:46.305Z,5.80
2019-01-19T14:40:20.781Z,11.87
2019-01-19T14:42:55.021Z,7.67
2019-01-19T14:45:32.385Z,4.37
2019-01-19T14:48:15.789Z,9.27
2019-01-19T14:51:02.270Z,7.63
2019-01-19T14:53:42.249Z,7.80
2019-01-19T14:56:25.421Z,8.40
2019-01-19T14:58:56.945Z,10.20
2019-01-19T15:01:34.541Z,7.40
2019-01-19T15:04:15.006Z,6.60
2019-01-19T15:06:52.101Z,6.70
2019-01-19T15:09:26.221Z,6.07
2019-01-19T15:12:12.930Z,6.93
2019-01-19T15:15:01.079Z,6.97
2019-01-19T15:18:07.554Z,6.87
2019-01-19T15:20:54.188Z,7.70
2019-01-19T15:23:59.210Z,11.17
2019-01-19T15:26:39.342Z,10.60
2019-01-19T15:29:10.870Z,8.87
2019-01-19T15:32:04.997Z,7.70
2019-01-19T15:34:55.594Z,8.30
2019-01-19T15:37:27.133Z,7.43
2019-01-19T15:40:01.581Z,8.97
2019-01-19T15:42:44.819Z,13.13
2019-01-19T15:45:37.469Z,8.43
2019-01-19T15:48:25.496Z,8.03
2019-01-19T15:51:18.345Z,9.63
2019-01-19T15:53:55.629Z,17.93
2019-01-19T15:56:51.177Z,7.87
2019-01-19T15:59:28.407Z,12.43
2019-01-19T16:02:17.286Z,11.00
2019-01-19T16:04:48.826Z,8.07
2019-01-19T16:07:32.430Z,7.97
2019-01-19T16:10:06.661Z,7.70
2019-01-19T16:12:57.510Z,10.40
2019-01-19T16:15:38.146Z,12.77
2019-01-19T16:18:24.483Z,8.13
2019-01-19T16:20:58.838Z,9.80
2019-01-19T16:23:36.165Z,8.77
2019-01-19T16:26:25.826Z,9.10
2019-01-19T16:29:30.399Z,10.70
2019-01-19T16:32:10.526Z,8.50
2019-01-19T16:34:47.785Z,6.63
2019-01-19T16:37:33.950Z,9.73
2019-01-19T16:40:20.690Z,12.90
2019-01-19T16:43:10.392Z,18.37
2019-01-19T16:45:53.961Z,13.33
2019-01-19T16:48:43.645Z,11.23
2019-01-19T16:51:33.530Z,11.33
2019-01-19T16:54:08.131Z,11.53
2019-01-19T16:56:54.214Z,15.17
2019-01-19T16:59:46.545Z,9.87
2019-01-19T17:02:46.622Z,9.53
2019-01-19T17:05:20.834Z,9.73
2019-01-19T17:07:55.277Z,8.50
2019-01-19T17:10:32.390Z,10.40
2019-01-19T17:13:06.497Z,9.13
2019-01-19T17:15:58.897Z,8.33
2019-01-19T17:18:41.761Z,10.60
2019-01-19T17:21:27.882Z,12.77
2019-01-19T17:24:02.225Z,9.20
2019-01-19T17:26:42.340Z,10.73
2019-01-19T17:29:19.870Z,13.57
2019-01-19T17:31:54.378Z,8.30
2019-01-19T17:34:41.054Z,12.70
2019-01-19T17:37:24.361Z,9.73
2019-01-19T17:40:01.632Z,12.03
2019-01-19T17:42:39.236Z,9.10
2019-01-19T17:45:27.225Z,16.80
2019-01-19T17:47:58.818Z,11.70
2019-01-19T17:50:48.586Z,12.97
2019-01-19T17:53:42.857Z,9.00
2019-01-19T17:56:32.025Z,10.53
2019-01-19T17:59:05.706Z,12.33
2019-01-19T18:01:46.523Z,11.87
2019-01-19T18:04:27.101Z,13.97
2019-01-19T18:07:01.161Z,16.23
2019-01-19T18:09:49.242Z,15.03
2019-01-19T18:12:35.709Z,12.50
2019-01-19T18:15:10.293Z,11.60
2019-01-19T18:17:44.513Z,14.23
2019-01-19T18:20:25.079Z,18.87
2019-01-19T18:23:15.122Z,25.70
2019-01-19T18:26:03.428Z,20.40
2019-01-19T18:28:35.329Z,20.60
2019-01-19T18:31:38.834Z,19.00
2019-01-19T18:34:21.981Z,40.53
2019-01-19T18:36:59.383Z,44.97
2019-01-19T18:39:34.061Z,27.17
2019-01-19T18:42:08.838Z,26.60
2019-01-19T18:44:58.658Z,22.07
2019-01-19T18:47:45.146Z,14.63
2019-01-19T18:50:22.343Z,16.10
2019-01-19T18:53:13.152Z,13.73
2019-01-19T18:55:53.882Z,13.43
2019-01-19T18:58:28.529Z,13.43
2019-01-19T19:01:15.202Z,13.97
2019-01-19T19:04:18.393Z,14.20
2019-01-19T19:07:06.542Z,10.93
2019-01-19T19:09:44.081Z,17.23
2019-01-19T19:12:24.465Z,17.90
2019-01-19T19:15:19.774Z,10.60
2019-01-19T19:18:12.310Z,12.20
2019-01-19T19:20:46.438Z,14.77
2019-01-19T19:23:20.651Z,11.70
2019-01-19T19:26:13.128Z,10.33
2019-01-19T19:28:50.815Z,11.63
2019-01-19T19:31:40.310Z,13.43
2019-01-19T19:34:37.146Z,13.00
2019-01-19T19:37:21.233Z,12.87
2019-01-19T19:39:55.577Z,12.20
2019-01-19T19:42:33.041Z,10.80
2019-01-19T19:45:29.076Z,14.07
2019-01-19T19:48:09.754Z,14.67
2019-01-19T19:50:56.459Z,18.60
2019-01-19T19:53:25.053Z,18.37
2019-01-19T19:55:52.538Z,17.60
2019-01-19T19:58:21.150Z,16.97
2019-01-19T20:00:50.858Z,14.87
2019-01-19T20:03:19.581Z,15.27
2019-01-19T20:05:48.114Z,15.90
2019-01-19T20:08:16.716Z,23.87
2019-01-19T20:10:45.436Z,16.73
2019-01-19T20:13:14.102Z,15.70
2019-01-19T20:15:42.822Z,17.90
2019-01-19T20:18:11.718Z,17.40
2019-01-19T20:20:40.313Z,12.93
2019-01-19T20:23:08.938Z,15.37
2019-01-19T20:25:37.464Z,14.67
2019-01-19T20:28:05.998Z,16.00
2019-01-19T20:30:36.266Z,16.53
2019-01-19T20:33:05.713Z,18.17
2019-01-19T20:35:34.271Z,14.70
2019-01-19T20:38:02.860Z,17.57
2019-01-19T20:40:31.345Z,13.57
2019-01-19T20:42:59.804Z,10.13
2019-01-19T20:45:28.333Z,25.63
2019-01-19T20:47:56.801Z,12.93
2019-01-19T20:50:25.538Z,13.83
2019-01-19T20:52:54.053Z,15.67
2019-01-19T20:55:22.586Z,11.67
2019-01-19T20:57:51.055Z,12.53
2019-01-19T21:00:19.730Z,14.50
2019-01-19T21:02:48.190Z,11.20
2019-01-19T21:05:16.725Z,9.43
2019-01-19T21:07:45.190Z,13.80
2019-01-19T21:10:13.706Z,11.97
2019-01-19T21:12:42.152Z,12.13
2019-01-19T21:15:13.421Z,12.60
2019-01-19T21:17:41.950Z,11.40
2019-01-19T21:20:13.290Z,10.87
2019-01-19T21:22:41.809Z,14.23
2019-01-19T21:25:11.999Z,11.60
2019-01-19T21:27:40.535Z,11.93
2019-01-19T21:30:14.790Z,10.00
2019-01-19T21:32:43.247Z,10.57
2019-01-19T21:35:11.826Z,11.13
2019-01-19T21:37:40.358Z,13.23
2019-01-19T21:40:11.238Z,15.20
2019-01-19T21:42:39.769Z,14.53
2019-01-19T21:45:13.881Z,12.87
2019-01-19T21:47:42.326Z,13.13
2019-01-19T21:50:12.020Z,11.70
2019-01-19T21:52:40.469Z,14.20
2019-01-19T21:55:10.066Z,11.90
2019-01-19T21:57:38.525Z,13.00
2019-01-19T22:00:12.414Z,13.40
2019-01-19T22:02:40.942Z,11.90
2019-01-19T22:05:09.521Z,11.50
2019-01-19T22:07:37.985Z,12.13
2019-01-19T22:10:09.525Z,12.57
2019-01-19T22:12:37.978Z,10.67
2019-01-19T22:15:09.513Z,10.00
2019-01-19T22:17:39.743Z,13.07
2019-01-19T22:20:11.213Z,9.80
2019-01-19T22:22:39.665Z,14.30
2019-01-19T22:25:08.654Z,14.70
2019-01-19T22:27:37.979Z,17.87
2019-01-19T22:30:12.787Z,26.17
2019-01-19T22:32:41.318Z,11.30
2019-01-19T22:35:10.619Z,13.37
2019-01-19T22:37:39.130Z,13.33
2019-01-19T22:40:11.088Z,12.87
2019-01-19T22:42:39.539Z,11.53
2019-01-19T22:45:10.309Z,15.00
2019-01-19T22:47:38.753Z,12.87
2019-01-19T22:50:10.317Z,11.10
2019-01-19T22:52:38.757Z,15.10
2019-01-19T22:55:07.475Z,13.43
2019-01-19T22:57:36.002Z,14.30
2019-01-19T23:00:10.385Z,11.57
2019-01-19T23:02:38.909Z,10.87
2019-01-19T23:05:07.574Z,12.93
2019-01-19T23:07:36.094Z,16.83
2019-01-19T23:10:07.692Z,14.63
2019-01-19T23:12:36.141Z,13.33
2019-01-19T23:15:08.285Z,35.33
2019-01-19T23:17:36.754Z,25.27
2019-01-19T23:20:08.289Z,21.37
2019-01-19T23:22:36.909Z,19.37
2019-01-19T23:25:06.613Z,20.13
2019-01-19T23:27:35.069Z,16.80
2019-01-19T23:30:05.129Z,15.77
2019-01-19T23:32:33.598Z,16.20
2019-01-19T23:35:02.205Z,16.20
2019-01-19T23:37:30.666Z,14.10
2019-01-19T23:39:59.115Z,16.87
2019-01-19T23:42:27.574Z,15.47
2019-01-19T23:44:56.041Z,19.90
2019-01-19T23:47:24.485Z,17.30
2019-01-19T23:49:52.946Z,15.80
2019-01-19T23:52:21.395Z,15.27
2019-01-19T23:54:49.857Z,15.63
2019-01-19T23:57:18.309Z,15.47
2019-01-19T23:59:46.766Z,17.87
